Wilkes-Barre, Pennsylvania
Current Conditions -  °F | °C
As of 2:54 PM on Monday 22 Dec 2014 (Local Time) from KAVP Reporting Station
Clear Clear  
Wind Chill: 33°   Ceiling: Unl
Heat Index: 40°   Visibility: 10mi
Dew Point: 27°   Wind: 10mph
Humidity: 60%   Direction: 160°SSE
Pressure: 30.16"   Gusts: 17mph
Location:  41.25°N, 75.88°W
Report Text: KAVP 221954Z AUTO 16009G15KT 10SM CLR 04/M03 A3016 RMK AO2 SLP220 T00441028
Loading
Personal Weather Stations






























Interactive Weather Map New forecast layout! Learn more

10-Day Weather Forecast

Advertisements
Track Severe Weather on mobile